sensor_id;sensor_type;location;lat;lon;timestamp;pressure;altitude;pressure_sealevel;temperature;humidity
30935;BME280;51033;42.648;23.292;2023-04-15T00:00:09;93082.72;;;8.79;48.10
30935;BME280;51033;42.648;23.292;2023-04-15T00:02:36;93061.66;;;8.82;47.48
30935;BME280;51033;42.648;23.292;2023-04-15T00:05:05;93070.75;;;9.02;47.05
30935;BME280;51033;42.648;23.292;2023-04-15T00:07:31;93057.94;;;8.45;48.06
30935;BME280;51033;42.648;23.292;2023-04-15T00:09:57;93107.06;;;8.72;48.49
30935;BME280;51033;42.648;23.292;2023-04-15T00:12:24;93090.13;;;8.65;48.85
30935;BME280;51033;42.648;23.292;2023-04-15T00:14:49;93123.28;;;8.71;49.21
30935;BME280;51033;42.648;23.292;2023-04-15T00:17:15;93099.34;;;8.58;49.87
30935;BME280;51033;42.648;23.292;2023-04-15T00:19:41;93060.56;;;8.45;49.94
30935;BME280;51033;42.648;23.292;2023-04-15T00:22:06;93083.72;;;8.66;50.33
30935;BME280;51033;42.648;23.292;2023-04-15T00:24:32;93078.13;;;8.58;50.68
30935;BME280;51033;42.648;23.292;2023-04-15T00:26:58;93087.38;;;8.82;50.42
30935;BME280;51033;42.648;23.292;2023-04-15T00:29:24;93092.97;;;8.89;50.03
30935;BME280;51033;42.648;23.292;2023-04-15T00:31:49;93090.00;;;8.90;50.29
30935;BME280;51033;42.648;23.292;2023-04-15T00:34:15;92988.81;;;8.21;50.49
30935;BME280;51033;42.648;23.292;2023-04-15T00:36:40;93090.50;;;8.84;50.79
30935;BME280;51033;42.648;23.292;2023-04-15T00:39:06;93101.91;;;8.84;50.99
30935;BME280;51033;42.648;23.292;2023-04-15T00:41:31;93096.44;;;8.81;51.38
30935;BME280;51033;42.648;23.292;2023-04-15T00:44:00;93098.69;;;8.62;51.26
30935;BME280;51033;42.648;23.292;2023-04-15T00:46:27;93069.66;;;8.27;51.55
30935;BME280;51033;42.648;23.292;2023-04-15T00:48:55;93080.59;;;8.64;51.08
30935;BME280;51033;42.648;23.292;2023-04-15T00:51:20;93091.59;;;8.83;51.03
30935;BME280;51033;42.648;23.292;2023-04-15T00:53:46;93092.75;;;9.02;50.49
30935;BME280;51033;42.648;23.292;2023-04-15T00:56:11;93112.34;;;9.10;50.62
30935;BME280;51033;42.648;23.292;2023-04-15T00:58:38;93109.88;;;9.05;50.39
30935;BME280;51033;42.648;23.292;2023-04-15T01:01:03;93100.06;;;9.06;50.23
30935;BME280;51033;42.648;23.292;2023-04-15T01:03:29;93109.38;;;9.20;50.23
30935;BME280;51033;42.648;23.292;2023-04-15T01:05:55;93098.50;;;9.13;49.54
30935;BME280;51033;42.648;23.292;2023-04-15T01:08:28;93113.72;;;9.25;49.48
30935;BME280;51033;42.648;23.292;2023-04-15T01:11:00;93124.31;;;9.33;49.32
30935;BME280;51033;42.648;23.292;2023-04-15T01:13:28;93112.44;;;9.31;49.11
30935;BME280;51033;42.648;23.292;2023-04-15T01:15:55;93111.22;;;9.28;49.43
30935;BME280;51033;42.648;23.292;2023-04-15T01:18:21;93121.84;;;9.28;49.28
30935;BME280;51033;42.648;23.292;2023-04-15T01:20:47;93114.50;;;9.25;49.58
30935;BME280;51033;42.648;23.292;2023-04-15T01:23:13;93098.44;;;9.22;49.22
30935;BME280;51033;42.648;23.292;2023-04-15T01:25:38;93101.56;;;9.44;48.91
30935;BME280;51033;42.648;23.292;2023-04-15T01:28:06;93096.13;;;9.41;48.38
30935;BME280;51033;42.648;23.292;2023-04-15T01:30:34;93102.88;;;9.38;48.69
30935;BME280;51033;42.648;23.292;2023-04-15T01:33:00;93092.97;;;9.27;48.84
30935;BME280;51033;42.648;23.292;2023-04-15T01:35:25;93090.06;;;9.11;49.06
30935;BME280;51033;42.648;23.292;2023-04-15T01:37:52;93081.59;;;8.88;49.51
30935;BME280;51033;42.648;23.292;2023-04-15T01:40:19;93107.06;;;9.10;49.50
30935;BME280;51033;42.648;23.292;2023-04-15T01:42:45;93104.19;;;8.94;49.65
30935;BME280;51033;42.648;23.292;2023-04-15T01:45:11;93109.31;;;8.99;49.68
30935;BME280;51033;42.648;23.292;2023-04-15T01:47:37;93092.63;;;8.90;49.83
30935;BME280;51033;42.648;23.292;2023-04-15T01:50:06;93111.00;;;9.04;49.68
30935;BME280;51033;42.648;23.292;2023-04-15T01:52:32;93100.28;;;8.92;49.61
30935;BME280;51033;42.648;23.292;2023-04-15T01:54:58;93131.94;;;8.97;49.47
30935;BME280;51033;42.648;23.292;2023-04-15T01:57:23;93124.94;;;8.92;49.50
30935;BME280;51033;42.648;23.292;2023-04-15T01:59:49;93120.72;;;8.91;49.53
30935;BME280;51033;42.648;23.292;2023-04-15T02:02:15;93127.28;;;8.94;49.69
30935;BME280;51033;42.648;23.292;2023-04-15T02:04:40;93096.28;;;8.77;49.38
30935;BME280;51033;42.648;23.292;2023-04-15T02:07:05;93118.06;;;8.91;49.14
30935;BME280;51033;42.648;23.292;2023-04-15T02:09:31;93116.88;;;8.80;49.42
30935;BME280;51033;42.648;23.292;2023-04-15T02:11:56;93104.56;;;8.76;49.26
30935;BME280;51033;42.648;23.292;2023-04-15T02:14:22;93104.84;;;8.83;49.07
30935;BME280;51033;42.648;23.292;2023-04-15T02:16:47;93103.66;;;8.72;49.46
30935;BME280;51033;42.648;23.292;2023-04-15T02:19:12;93117.06;;;8.75;49.53
30935;BME280;51033;42.648;23.292;2023-04-15T02:21:39;93093.91;;;8.46;49.86
30935;BME280;51033;42.648;23.292;2023-04-15T02:24:05;93110.59;;;8.55;50.19
30935;BME280;51033;42.648;23.292;2023-04-15T02:26:30;93084.69;;;8.52;49.85
30935;BME280;51033;42.648;23.292;2023-04-15T02:28:58;93094.84;;;8.42;50.30
30935;BME280;51033;42.648;23.292;2023-04-15T02:31:24;93107.13;;;8.64;49.69
30935;BME280;51033;42.648;23.292;2023-04-15T02:33:50;93089.41;;;8.38;50.00
30935;BME280;51033;42.648;23.292;2023-04-15T02:36:15;93088.44;;;8.51;49.72
30935;BME280;51033;42.648;23.292;2023-04-15T02:38:41;93108.34;;;8.66;49.34
30935;BME280;51033;42.648;23.292;2023-04-15T02:41:10;93108.84;;;8.59;49.43
30935;BME280;51033;42.648;23.292;2023-04-15T02:43:35;93134.94;;;8.40;50.52
30935;BME280;51033;42.648;23.292;2023-04-15T02:46:01;93104.41;;;8.34;50.76
30935;BME280;51033;42.648;23.292;2023-04-15T02:48:26;93106.56;;;8.32;50.62
30935;BME280;51033;42.648;23.292;2023-04-15T02:50:51;93122.59;;;8.44;50.79
30935;BME280;51033;42.648;23.292;2023-04-15T02:53:17;93100.69;;;8.18;51.53
30935;BME280;51033;42.648;23.292;2023-04-15T02:55:44;93111.88;;;8.32;51.15
30935;BME280;51033;42.648;23.292;2023-04-15T02:58:09;93089.16;;;8.14;51.09
30935;BME280;51033;42.648;23.292;2023-04-15T03:00:35;93135.88;;;8.36;50.31
30935;BME280;51033;42.648;23.292;2023-04-15T03:03:03;93132.34;;;8.06;51.06
30935;BME280;51033;42.648;23.292;2023-04-15T03:05:28;93115.19;;;7.69;52.54
30935;BME280;51033;42.648;23.292;2023-04-15T03:07:54;93139.50;;;8.05;51.47
30935;BME280;51033;42.648;23.292;2023-04-15T03:10:20;93141.84;;;8.07;51.61
30935;BME280;51033;42.648;23.292;2023-04-15T03:12:46;93138.41;;;7.98;51.59
30935;BME280;51033;42.648;23.292;2023-04-15T03:15:11;93140.91;;;7.86;52.55
30935;BME280;51033;42.648;23.292;2023-04-15T03:17:37;93124.84;;;7.65;52.68
30935;BME280;51033;42.648;23.292;2023-04-15T03:20:04;93133.41;;;7.70;53.05
30935;BME280;51033;42.648;23.292;2023-04-15T03:22:32;93134.78;;;7.68;52.92
30935;BME280;51033;42.648;23.292;2023-04-15T03:24:57;93149.00;;;7.81;52.49
30935;BME280;51033;42.648;23.292;2023-04-15T03:27:24;93144.28;;;7.60;53.06
30935;BME280;51033;42.648;23.292;2023-04-15T03:29:49;93149.16;;;7.76;53.02
30935;BME280;51033;42.648;23.292;2023-04-15T03:32:16;93150.84;;;7.71;53.48
30935;BME280;51033;42.648;23.292;2023-04-15T03:34:41;93159.28;;;7.82;53.23
30935;BME280;51033;42.648;23.292;2023-04-15T03:37:07;93147.59;;;7.75;53.42
30935;BME280;51033;42.648;23.292;2023-04-15T03:39:33;93165.81;;;7.76;54.09
30935;BME280;51033;42.648;23.292;2023-04-15T03:41:59;93163.28;;;7.62;53.74
30935;BME280;51033;42.648;23.292;2023-04-15T03:44:26;93169.47;;;7.49;54.18
30935;BME280;51033;42.648;23.292;2023-04-15T03:46:52;93163.19;;;7.19;54.93
30935;BME280;51033;42.648;23.292;2023-04-15T03:49:17;93185.88;;;7.12;55.87
30935;BME280;51033;42.648;23.292;2023-04-15T03:51:43;93144.34;;;7.12;54.74
30935;BME280;51033;42.648;23.292;2023-04-15T03:54:09;93190.47;;;7.28;54.77
30935;BME280;51033;42.648;23.292;2023-04-15T03:56:35;93187.78;;;7.20;55.00
30935;BME280;51033;42.648;23.292;2023-04-15T03:59:00;93172.03;;;7.06;54.75
30935;BME280;51033;42.648;23.292;2023-04-15T04:01:26;93172.53;;;7.17;54.83
30935;BME280;51033;42.648;23.292;2023-04-15T04:03:51;93147.84;;;6.91;56.05
30935;BME280;51033;42.648;23.292;2023-04-15T04:06:17;93174.22;;;7.04;56.72
30935;BME280;51033;42.648;23.292;2023-04-15T04:08:42;93194.91;;;7.11;56.67
30935;BME280;51033;42.648;23.292;2023-04-15T04:11:08;93199.28;;;7.24;56.53
30935;BME280;51033;42.648;23.292;2023-04-15T04:13:33;93191.16;;;7.12;56.51
30935;BME280;51033;42.648;23.292;2023-04-15T04:15:59;93183.59;;;7.27;56.37
30935;BME280;51033;42.648;23.292;2023-04-15T04:18:24;93195.94;;;7.49;56.09
30935;BME280;51033;42.648;23.292;2023-04-15T04:20:49;93164.47;;;7.39;55.88
30935;BME280;51033;42.648;23.292;2023-04-15T04:23:15;93160.75;;;7.40;55.79
30935;BME280;51033;42.648;23.292;2023-04-15T04:25:41;93184.00;;;7.69;55.29
30935;BME280;51033;42.648;23.292;2023-04-15T04:28:06;93181.56;;;7.73;55.43
30935;BME280;51033;42.648;23.292;2023-04-15T04:30:32;93143.94;;;7.36;56.14
30935;BME280;51033;42.648;23.292;2023-04-15T04:32:57;93150.84;;;7.71;55.17
30935;BME280;51033;42.648;23.292;2023-04-15T04:35:22;93173.13;;;7.88;55.01
30935;BME280;51033;42.648;23.292;2023-04-15T04:37:48;93178.94;;;8.07;54.72
30935;BME280;51033;42.648;23.292;2023-04-15T04:40:13;93198.22;;;8.16;54.20
30935;BME280;51033;42.648;23.292;2023-04-15T04:42:39;93148.53;;;7.96;53.65
30935;BME280;51033;42.648;23.292;2023-04-15T04:45:05;93191.03;;;8.51;53.15
30935;BME280;51033;42.648;23.292;2023-04-15T04:47:30;93204.28;;;8.42;53.47
30935;BME280;51033;42.648;23.292;2023-04-15T04:49:55;93198.53;;;8.40;53.93
30935;BME280;51033;42.648;23.292;2023-04-15T04:52:21;93195.81;;;8.66;53.14
30935;BME280;51033;42.648;23.292;2023-04-15T04:54:46;93198.47;;;8.75;53.44
30935;BME280;51033;42.648;23.292;2023-04-15T04:57:12;93208.19;;;8.36;54.91
30935;BME280;51033;42.648;23.292;2023-04-15T04:59:38;93211.88;;;7.66;56.41
30935;BME280;51033;42.648;23.292;2023-04-15T05:02:03;93216.84;;;7.20;57.42
30935;BME280;51033;42.648;23.292;2023-04-15T05:04:29;93220.75;;;7.14;58.31
30935;BME280;51033;42.648;23.292;2023-04-15T05:06:56;93233.53;;;7.29;58.55
30935;BME280;51033;42.648;23.292;2023-04-15T05:09:24;93240.63;;;7.11;58.78
30935;BME280;51033;42.648;23.292;2023-04-15T05:11:49;93236.56;;;7.53;57.96
30935;BME280;51033;42.648;23.292;2023-04-15T05:14:15;93245.28;;;7.54;56.78
30935;BME280;51033;42.648;23.292;2023-04-15T05:16:40;93247.72;;;7.33;57.71
30935;BME280;51033;42.648;23.292;2023-04-15T05:19:06;93261.34;;;7.57;56.74
30935;BME280;51033;42.648;23.292;2023-04-15T05:21:32;93264.41;;;7.90;53.95
30935;BME280;51033;42.648;23.292;2023-04-15T05:23:57;93268.59;;;7.83;53.85
30935;BME280;51033;42.648;23.292;2023-04-15T05:26:23;93253.81;;;8.07;53.91
30935;BME280;51033;42.648;23.292;2023-04-15T05:28:48;93262.69;;;8.03;53.20
30935;BME280;51033;42.648;23.292;2023-04-15T05:31:14;93256.91;;;7.75;53.22
30935;BME280;51033;42.648;23.292;2023-04-15T05:33:40;93230.03;;;7.03;55.64
30935;BME280;51033;42.648;23.292;2023-04-15T05:36:05;93227.81;;;7.36;54.02
30935;BME280;51033;42.648;23.292;2023-04-15T05:38:31;93228.31;;;7.07;55.04
30935;BME280;51033;42.648;23.292;2023-04-15T05:40:56;93234.69;;;7.06;54.95
30935;BME280;51033;42.648;23.292;2023-04-15T05:43:22;93234.53;;;7.50;53.98
30935;BME280;51033;42.648;23.292;2023-04-15T05:45:47;93243.41;;;8.11;52.16
30935;BME280;51033;42.648;23.292;2023-04-15T05:48:12;93235.78;;;7.92;52.83
30935;BME280;51033;42.648;23.292;2023-04-15T05:50:41;93247.59;;;7.95;52.54
30935;BME280;51033;42.648;23.292;2023-04-15T05:53:07;93236.84;;;8.17;52.04
30935;BME280;51033;42.648;23.292;2023-04-15T05:55:32;93241.25;;;8.30;51.75
30935;BME280;51033;42.648;23.292;2023-04-15T05:57:58;93252.13;;;8.03;52.70
30935;BME280;51033;42.648;23.292;2023-04-15T06:00:24;93209.25;;;7.84;52.54
30935;BME280;51033;42.648;23.292;2023-04-15T06:02:50;93242.16;;;8.08;52.29
30935;BME280;51033;42.648;23.292;2023-04-15T06:05:17;93263.81;;;8.19;52.43
30935;BME280;51033;42.648;23.292;2023-04-15T06:07:43;93237.78;;;8.04;53.14
30935;BME280;51033;42.648;23.292;2023-04-15T06:10:09;93273.00;;;7.96;54.58
30935;BME280;51033;42.648;23.292;2023-04-15T06:12:34;93253.47;;;7.75;53.38
30935;BME280;51033;42.648;23.292;2023-04-15T06:15:00;93276.47;;;8.39;53.62
30935;BME280;51033;42.648;23.292;2023-04-15T06:17:26;93261.78;;;7.99;54.22
30935;BME280;51033;42.648;23.292;2023-04-15T06:19:51;93260.41;;;8.44;53.65
30935;BME280;51033;42.648;23.292;2023-04-15T06:22:22;93268.59;;;8.86;53.08
30935;BME280;51033;42.648;23.292;2023-04-15T06:24:48;93290.13;;;8.93;53.20
30935;BME280;51033;42.648;23.292;2023-04-15T06:27:17;93291.69;;;8.94;52.80
30935;BME280;51033;42.648;23.292;2023-04-15T06:29:42;93283.25;;;9.09;52.79
30935;BME280;51033;42.648;23.292;2023-04-15T06:32:08;93275.97;;;8.72;52.23
30935;BME280;51033;42.648;23.292;2023-04-15T06:34:33;93291.72;;;8.77;52.72
30935;BME280;51033;42.648;23.292;2023-04-15T06:36:59;93293.44;;;8.73;52.06
30935;BME280;51033;42.648;23.292;2023-04-15T06:39:25;93286.84;;;9.60;51.02
30935;BME280;51033;42.648;23.292;2023-04-15T06:41:51;93303.69;;;9.64;50.60
30935;BME280;51033;42.648;23.292;2023-04-15T06:44:16;93266.03;;;9.70;49.30
30935;BME280;51033;42.648;23.292;2023-04-15T06:46:43;93301.25;;;9.50;50.76
30935;BME280;51033;42.648;23.292;2023-04-15T06:49:08;93298.75;;;9.83;49.48
30935;BME280;51033;42.648;23.292;2023-04-15T06:51:34;93307.38;;;10.39;48.47
30935;BME280;51033;42.648;23.292;2023-04-15T06:54:00;93297.03;;;9.87;48.94
30935;BME280;51033;42.648;23.292;2023-04-15T06:56:26;93309.94;;;9.68;49.29
30935;BME280;51033;42.648;23.292;2023-04-15T06:58:52;93293.44;;;10.12;49.14
30935;BME280;51033;42.648;23.292;2023-04-15T07:01:17;93303.16;;;10.08;48.17
30935;BME280;51033;42.648;23.292;2023-04-15T07:03:43;93305.78;;;10.17;48.37
30935;BME280;51033;42.648;23.292;2023-04-15T07:06:08;93313.22;;;10.53;47.29
30935;BME280;51033;42.648;23.292;2023-04-15T07:08:34;93293.84;;;10.23;48.69
30935;BME280;51033;42.648;23.292;2023-04-15T07:11:00;93307.78;;;9.91;47.93
30935;BME280;51033;42.648;23.292;2023-04-15T07:13:25;93294.97;;;10.43;48.55
30935;BME280;51033;42.648;23.292;2023-04-15T07:15:51;93308.91;;;10.81;47.58
30935;BME280;51033;42.648;23.292;2023-04-15T07:18:16;93281.69;;;10.43;46.12
30935;BME280;51033;42.648;23.292;2023-04-15T07:20:42;93302.84;;;10.81;46.12
30935;BME280;51033;42.648;23.292;2023-04-15T07:23:07;93277.50;;;10.95;45.73
30935;BME280;51033;42.648;23.292;2023-04-15T07:25:33;93305.63;;;11.17;45.67
30935;BME280;51033;42.648;23.292;2023-04-15T07:27:58;93313.13;;;11.15;44.65
30935;BME280;51033;42.648;23.292;2023-04-15T07:30:24;93314.63;;;10.92;47.42
30935;BME280;51033;42.648;23.292;2023-04-15T07:32:50;93300.22;;;10.93;46.28
30935;BME280;51033;42.648;23.292;2023-04-15T07:35:15;93308.09;;;10.68;47.13
30935;BME280;51033;42.648;23.292;2023-04-15T07:37:40;93286.47;;;10.28;46.31
30935;BME280;51033;42.648;23.292;2023-04-15T07:40:08;93286.88;;;10.81;45.19
30935;BME280;51033;42.648;23.292;2023-04-15T07:42:34;93302.56;;;10.94;44.82
30935;BME280;51033;42.648;23.292;2023-04-15T07:44:59;93277.25;;;10.88;45.09
30935;BME280;51033;42.648;23.292;2023-04-15T07:47:25;93304.25;;;10.57;46.44
30935;BME280;51033;42.648;23.292;2023-04-15T07:49:51;93315.16;;;10.64;46.19
30935;BME280;51033;42.648;23.292;2023-04-15T07:52:17;93317.03;;;10.64;46.63
30935;BME280;51033;42.648;23.292;2023-04-15T07:54:42;93287.59;;;10.69;46.82
30935;BME280;51033;42.648;23.292;2023-04-15T07:57:08;93328.72;;;10.51;46.87
30935;BME280;51033;42.648;23.292;2023-04-15T07:59:33;93306.59;;;10.09;47.38
30935;BME280;51033;42.648;23.292;2023-04-15T08:01:59;93324.91;;;10.31;46.07
30935;BME280;51033;42.648;23.292;2023-04-15T08:04:24;93322.88;;;10.28;46.39
30935;BME280;51033;42.648;23.292;2023-04-15T08:06:50;93288.78;;;10.09;45.40
30935;BME280;51033;42.648;23.292;2023-04-15T08:09:16;93321.38;;;10.18;46.29
30935;BME280;51033;42.648;23.292;2023-04-15T08:11:42;93308.47;;;10.58;45.43
30935;BME280;51033;42.648;23.292;2023-04-15T08:14:07;93312.50;;;10.85;45.52
30935;BME280;51033;42.648;23.292;2023-04-15T08:16:33;93312.00;;;10.50;44.11
30935;BME280;51033;42.648;23.292;2023-04-15T08:18:58;93313.69;;;10.55;44.32
30935;BME280;51033;42.648;23.292;2023-04-15T08:21:24;93315.00;;;11.02;43.21
30935;BME280;51033;42.648;23.292;2023-04-15T08:23:51;93314.50;;;10.88;42.07
30935;BME280;51033;42.648;23.292;2023-04-15T08:26:17;93326.00;;;11.46;42.28
30935;BME280;51033;42.648;23.292;2023-04-15T08:28:43;93330.53;;;11.45;41.37
30935;BME280;51033;42.648;23.292;2023-04-15T08:31:09;93317.59;;;11.56;40.94
30935;BME280;51033;42.648;23.292;2023-04-15T08:33:35;93322.41;;;11.63;39.96
30935;BME280;51033;42.648;23.292;2023-04-15T08:36:01;93303.84;;;11.21;38.89
30935;BME280;51033;42.648;23.292;2023-04-15T08:38:26;93308.09;;;11.91;38.59
30935;BME280;51033;42.648;23.292;2023-04-15T08:40:52;93284.53;;;11.93;39.45
30935;BME280;51033;42.648;23.292;2023-04-15T08:43:22;93302.41;;;12.29;38.69
30935;BME280;51033;42.648;23.292;2023-04-15T08:45:51;93301.41;;;12.46;39.01
30935;BME280;51033;42.648;23.292;2023-04-15T08:48:17;93284.63;;;12.45;37.59
30935;BME280;51033;42.648;23.292;2023-04-15T08:50:44;93303.63;;;12.44;37.97
30935;BME280;51033;42.648;23.292;2023-04-15T08:53:10;93292.13;;;11.91;37.22
30935;BME280;51033;42.648;23.292;2023-04-15T08:55:42;93301.97;;;11.67;37.67
30935;BME280;51033;42.648;23.292;2023-04-15T08:58:09;93298.53;;;11.54;38.33
30935;BME280;51033;42.648;23.292;2023-04-15T09:00:36;93305.63;;;11.62;36.29
30935;BME280;51033;42.648;23.292;2023-04-15T09:03:03;93297.66;;;11.98;38.77
30935;BME280;51033;42.648;23.292;2023-04-15T09:05:34;93260.25;;;12.07;34.83
30935;BME280;51033;42.648;23.292;2023-04-15T09:08:00;93277.41;;;12.46;35.62
30935;BME280;51033;42.648;23.292;2023-04-15T09:10:26;93281.91;;;11.81;34.91
30935;BME280;51033;42.648;23.292;2023-04-15T09:12:52;93268.56;;;11.69;34.18
30935;BME280;51033;42.648;23.292;2023-04-15T09:15:17;93290.09;;;11.64;35.03
30935;BME280;51033;42.648;23.292;2023-04-15T09:17:43;93283.00;;;12.17;34.52
30935;BME280;51033;42.648;23.292;2023-04-15T09:20:11;93268.81;;;12.53;33.34
30935;BME280;51033;42.648;23.292;2023-04-15T09:22:41;93277.59;;;12.65;33.19
30935;BME280;51033;42.648;23.292;2023-04-15T09:27:52;93273.19;;;12.85;31.95
30935;BME280;51033;42.648;23.292;2023-04-15T09:30:17;93273.91;;;12.98;31.60
30935;BME280;51033;42.648;23.292;2023-04-15T09:35:16;93273.69;;;12.63;33.23
30935;BME280;51033;42.648;23.292;2023-04-15T09:37:41;93265.59;;;12.47;34.47
30935;BME280;51033;42.648;23.292;2023-04-15T09:40:07;93276.03;;;12.64;34.69
30935;BME280;51033;42.648;23.292;2023-04-15T09:42:34;93261.41;;;12.34;34.79
30935;BME280;51033;42.648;23.292;2023-04-15T09:45:12;93265.31;;;12.36;33.21
30935;BME280;51033;42.648;23.292;2023-04-15T09:47:38;93277.63;;;12.41;33.36
30935;BME280;51033;42.648;23.292;2023-04-15T09:50:03;93272.72;;;12.43;32.49
30935;BME280;51033;42.648;23.292;2023-04-15T09:52:29;93262.41;;;12.41;31.21
30935;BME280;51033;42.648;23.292;2023-04-15T09:54:58;93288.91;;;12.74;31.71
30935;BME280;51033;42.648;23.292;2023-04-15T09:57:33;93238.25;;;13.06;31.04
30935;BME280;51033;42.648;23.292;2023-04-15T09:59:58;93255.28;;;12.85;31.88
30935;BME280;51033;42.648;23.292;2023-04-15T10:02:24;93273.34;;;12.52;31.12
30935;BME280;51033;42.648;23.292;2023-04-15T10:04:51;93257.59;;;12.59;31.31
30935;BME280;51033;42.648;23.292;2023-04-15T10:07:20;93284.06;;;13.20;30.74
30935;BME280;51033;42.648;23.292;2023-04-15T10:09:49;93259.13;;;13.16;30.98
30935;BME280;51033;42.648;23.292;2023-04-15T10:12:19;93262.53;;;13.01;31.88
30935;BME280;51033;42.648;23.292;2023-04-15T10:14:49;93270.38;;;13.37;31.11
30935;BME280;51033;42.648;23.292;2023-04-15T10:17:17;93268.91;;;13.55;32.70
30935;BME280;51033;42.648;23.292;2023-04-15T10:19:47;93266.78;;;13.77;30.96
30935;BME280;51033;42.648;23.292;2023-04-15T10:22:13;93250.91;;;13.52;28.74
30935;BME280;51033;42.648;23.292;2023-04-15T10:24:39;93262.13;;;13.58;30.34
30935;BME280;51033;42.648;23.292;2023-04-15T10:27:05;93246.53;;;13.75;30.03
30935;BME280;51033;42.648;23.292;2023-04-15T10:29:31;93240.50;;;13.79;31.59
30935;BME280;51033;42.648;23.292;2023-04-15T10:31:58;93224.63;;;13.70;31.46
30935;BME280;51033;42.648;23.292;2023-04-15T10:34:24;93236.72;;;13.05;31.44
30935;BME280;51033;42.648;23.292;2023-04-15T10:36:50;93228.94;;;13.43;30.76
30935;BME280;51033;42.648;23.292;2023-04-15T10:39:41;93244.34;;;13.34;31.63
30935;BME280;51033;42.648;23.292;2023-04-15T10:42:15;93236.72;;;13.05;30.87
30935;BME280;51033;42.648;23.292;2023-04-15T10:44:44;93207.13;;;13.41;30.55
30935;BME280;51033;42.648;23.292;2023-04-15T10:47:14;93225.41;;;13.86;32.02
30935;BME280;51033;42.648;23.292;2023-04-15T10:49:50;93224.75;;;13.73;33.40
30935;BME280;51033;42.648;23.292;2023-04-15T10:52:20;93231.66;;;13.94;30.54
30935;BME280;51033;42.648;23.292;2023-04-15T10:54:47;93214.16;;;14.12;32.08
30935;BME280;51033;42.648;23.292;2023-04-15T10:57:22;93236.63;;;14.27;29.36
30935;BME280;51033;42.648;23.292;2023-04-15T11:05:10;93224.59;;;14.36;30.86
30935;BME280;51033;42.648;23.292;2023-04-15T11:12:43;93229.31;;;14.43;31.03
30935;BME280;51033;42.648;23.292;2023-04-15T11:15:37;93239.59;;;14.56;29.82
30935;BME280;51033;42.648;23.292;2023-04-15T11:18:22;93234.50;;;14.71;29.78
30935;BME280;51033;42.648;23.292;2023-04-15T11:20:52;93227.38;;;14.59;33.62
30935;BME280;51033;42.648;23.292;2023-04-15T11:23:30;93218.31;;;14.64;29.82
30935;BME280;51033;42.648;23.292;2023-04-15T11:25:57;93208.72;;;14.82;30.21
30935;BME280;51033;42.648;23.292;2023-04-15T11:28:27;93231.69;;;14.83;29.09
30935;BME280;51033;42.648;23.292;2023-04-15T11:30:53;93239.13;;;15.12;28.41
30935;BME280;51033;42.648;23.292;2023-04-15T11:33:20;93240.34;;;14.95;27.88
30935;BME280;51033;42.648;23.292;2023-04-15T11:35:47;93236.47;;;14.93;27.33
30935;BME280;51033;42.648;23.292;2023-04-15T11:38:13;93236.16;;;15.17;28.09
30935;BME280;51033;42.648;23.292;2023-04-15T11:40:40;93244.16;;;15.36;29.69
30935;BME280;51033;42.648;23.292;2023-04-15T11:43:15;93235.19;;;15.06;26.48
30935;BME280;51033;42.648;23.292;2023-04-15T11:48:18;93234.22;;;15.37;29.02
30935;BME280;51033;42.648;23.292;2023-04-15T11:50:44;93221.78;;;15.25;26.52
30935;BME280;51033;42.648;23.292;2023-04-15T11:53:12;93229.28;;;14.78;26.56
30935;BME280;51033;42.648;23.292;2023-04-15T11:55:51;93215.22;;;14.62;27.24
30935;BME280;51033;42.648;23.292;2023-04-15T11:58:19;93218.25;;;14.44;26.95
30935;BME280;51033;42.648;23.292;2023-04-15T12:00:53;93224.34;;;14.99;28.45
30935;BME280;51033;42.648;23.292;2023-04-15T12:03:27;93207.06;;;14.96;27.63
30935;BME280;51033;42.648;23.292;2023-04-15T12:06:19;93223.38;;;14.88;30.63
30935;BME280;51033;42.648;23.292;2023-04-15T12:13:47;93219.34;;;14.78;28.27
30935;BME280;51033;42.648;23.292;2023-04-15T12:16:19;93227.88;;;14.84;27.89
30935;BME280;51033;42.648;23.292;2023-04-15T12:18:52;93218.41;;;15.09;28.13
30935;BME280;51033;42.648;23.292;2023-04-15T12:21:21;93220.63;;;15.26;29.98
30935;BME280;51033;42.648;23.292;2023-04-15T12:23:56;93216.66;;;15.39;28.35
30935;BME280;51033;42.648;23.292;2023-04-15T12:26:27;93212.09;;;15.40;30.54
30935;BME280;51033;42.648;23.292;2023-04-15T12:29:06;93235.69;;;15.54;30.00
30935;BME280;51033;42.648;23.292;2023-04-15T12:31:34;93214.78;;;14.79;28.14
30935;BME280;51033;42.648;23.292;2023-04-15T12:34:01;93230.69;;;15.10;29.52
30935;BME280;51033;42.648;23.292;2023-04-15T12:36:28;93217.63;;;15.09;28.13
30935;BME280;51033;42.648;23.292;2023-04-15T12:38:55;93215.59;;;15.02;30.10
30935;BME280;51033;42.648;23.292;2023-04-15T12:41:21;93217.69;;;15.12;27.62
30935;BME280;51033;42.648;23.292;2023-04-15T12:43:49;93222.75;;;15.17;30.31
30935;BME280;51033;42.648;23.292;2023-04-15T12:46:15;93236.53;;;15.38;29.36
30935;BME280;51033;42.648;23.292;2023-04-15T12:48:41;93229.34;;;15.42;28.05
30935;BME280;51033;42.648;23.292;2023-04-15T12:51:06;93222.59;;;15.49;28.15
30935;BME280;51033;42.648;23.292;2023-04-15T12:53:31;93227.50;;;15.04;27.45
30935;BME280;51033;42.648;23.292;2023-04-15T12:55:57;93240.09;;;15.23;28.78
30935;BME280;51033;42.648;23.292;2023-04-15T12:58:22;93229.38;;;15.23;28.57
30935;BME280;51033;42.648;23.292;2023-04-15T13:00:48;93234.03;;;15.26;27.29
30935;BME280;51033;42.648;23.292;2023-04-15T13:03:14;93218.25;;;14.25;27.57
30935;BME280;51033;42.648;23.292;2023-04-15T13:05:40;93217.47;;;13.90;27.90
30935;BME280;51033;42.648;23.292;2023-04-15T13:08:05;93236.91;;;14.76;31.72
30935;BME280;51033;42.648;23.292;2023-04-15T13:10:31;93213.16;;;15.16;28.46
30935;BME280;51033;42.648;23.292;2023-04-15T13:12:57;93213.00;;;15.48;28.16
30935;BME280;51033;42.648;23.292;2023-04-15T13:15:22;93237.03;;;15.67;28.64